Terminal Aerodrome Forecast
Issued by NWS Sioux Falls, SD

Home | Current Version | Previous Version | Text Only | Print | Product List | Glossary On
Versions: 1 2 3 4 5 6 7 8 9 10 11 12 13 14 15
605
FTUS43 KFSD 271122
TAFFSD
TAF
KFSD 271122Z 2712/2812 VRB05KT P6SM BKN120
     FM271500 24008KT P6SM BKN100
     FM271700 30008KT P6SM BKN070
     FM272000 36011KT P6SM BKN100
     FM280000 01009KT P6SM SCT150
     FM280800 35006KT P6SM BKN150=

USA.gov is the U.S. government's official web portal to all federal, state and local government web resources and services.